Time;durP1;ratioP1;P1;durP2;ratioP2;P2;SDS_P1;SDS_P2;PMS_P1;PMS_P2;Temp;Humidity;BMP_temperature;BMP_pressure;BME280_temperature;BME280_humidity;BME280_pressure;Samples;Min_cycle;Max_cycle;Signal;HPM_P1;HPM_P2
2022/07/23 00:02:00;;;;;;;3.95;2.20;;;15.40;99.90;;;;;;5073168;28;20054;-72
2022/07/23 00:04:25;;;;;;;3.55;2.10;;;15.40;99.90;;;;;;5075469;28;20593;-73
2022/07/23 00:06:51;;;;;;;2.03;1.50;;;15.40;99.90;;;;;;5067426;28;20048;-73
2022/07/23 00:09:16;;;;;;;2.45;1.88;;;15.40;99.90;;;;;;5071512;28;20113;-72
2022/07/23 00:11:42;;;;;;;2.95;2.38;;;15.40;99.90;;;;;;5073493;28;20048;-72
2022/07/23 00:14:08;;;;;;;2.75;1.98;;;15.40;99.90;;;;;;5074806;28;20056;-73
2022/07/23 00:16:33;;;;;;;2.85;2.15;;;15.40;99.90;;;;;;5076613;28;20040;-72
2022/07/23 00:19:01;;;;;;;5.35;2.40;;;15.50;99.90;;;;;;5076782;28;20064;-72
2022/07/23 00:21:27;;;;;;;4.13;2.55;;;15.40;99.90;;;;;;5094757;28;20048;-73
2022/07/23 00:23:53;;;;;;;5.63;2.63;;;15.40;99.90;;;;;;5079370;28;20071;-72
2022/07/23 00:26:18;;;;;;;3.05;2.47;;;15.40;99.90;;;;;;5088792;28;20055;-72
2022/07/23 00:28:44;;;;;;;2.65;2.45;;;15.30;99.90;;;;;;5075875;28;20040;-72
2022/07/23 00:31:10;;;;;;;3.70;2.60;;;15.30;99.90;;;;;;5086481;28;20048;-72
2022/07/23 00:33:35;;;;;;;4.22;2.88;;;15.30;99.90;;;;;;5079256;28;20040;-72
2022/07/23 00:36:01;;;;;;;4.28;2.40;;;15.20;99.90;;;;;;5079008;28;20056;-72
2022/07/23 00:38:27;;;;;;;5.20;2.97;;;15.20;99.90;;;;;;5074024;28;20050;-72
2022/07/23 00:40:53;;;;;;;3.20;2.90;;;15.10;99.90;;;;;;5080096;28;20047;-72
2022/07/23 00:43:21;;;;;;;3.75;2.58;;;15.10;99.90;;;;;;5080056;28;20047;-72
2022/07/23 00:45:47;;;;;;;4.72;2.50;;;15.10;99.90;;;;;;5077694;28;20044;-72
2022/07/23 00:48:13;;;;;;;2.55;2.20;;;15.00;99.90;;;;;;5076841;28;21365;-72
2022/07/23 00:50:39;;;;;;;3.17;2.17;;;14.90;99.90;;;;;;5076842;28;20054;-72
2022/07/23 00:53:05;;;;;;;5.45;3.10;;;14.90;99.90;;;;;;5087119;28;20121;-73
2022/07/23 00:55:32;;;;;;;3.95;2.92;;;14.90;99.90;;;;;;5078008;28;20051;-73
2022/07/23 00:57:58;;;;;;;6.05;3.25;;;14.90;99.90;;;;;;5078613;28;20048;-72
2022/07/23 01:00:24;;;;;;;4.53;2.85;;;14.80;99.90;;;;;;5078774;28;20316;-73
2022/07/23 01:02:50;;;;;;;4.40;2.95;;;14.80;99.90;;;;;;5079455;28;20544;-72
2022/07/23 01:05:17;;;;;;;4.13;3.25;;;14.90;99.90;;;;;;5077768;28;20044;-72
2022/07/23 01:07:43;;;;;;;4.57;3.40;;;14.90;99.90;;;;;;5079556;28;20111;-72
2022/07/23 01:12:53;;;;;;;5.28;3.63;;;14.80;99.90;;;;;;5068168;28;20052;-72
2022/07/23 01:15:19;;;;;;;4.70;3.35;;;14.80;99.90;;;;;;5079025;28;20056;-72
2022/07/23 01:17:44;;;;;;;5.28;3.30;;;14.90;99.90;;;;;;5078764;28;20066;-72
2022/07/23 01:20:10;;;;;;;5.95;3.63;;;14.90;99.90;;;;;;5078167;28;20097;-72
2022/07/23 01:22:36;;;;;;;6.13;3.28;;;14.90;99.90;;;;;;5092396;28;20217;-72
2022/07/23 01:25:02;;;;;;;2.70;2.50;;;14.90;99.90;;;;;;5079465;28;20118;-73
2022/07/23 01:27:28;;;;;;;5.28;3.35;;;14.90;99.90;;;;;;5077961;28;20047;-72
2022/07/23 01:29:55;;;;;;;8.02;3.80;;;14.80;99.90;;;;;;5077989;28;20048;-73
2022/07/23 01:32:20;;;;;;;3.85;2.70;;;14.80;99.90;;;;;;5076471;28;20072;-72
2022/07/23 01:34:46;;;;;;;4.07;2.72;;;14.80;99.90;;;;;;5079893;28;20535;-73
2022/07/23 01:37:11;;;;;;;5.75;3.92;;;14.70;99.90;;;;;;5077712;28;20044;-73
2022/07/23 01:39:37;;;;;;;7.60;2.85;;;14.60;99.90;;;;;;5078288;28;20056;-72
2022/07/23 01:42:03;;;;;;;4.45;2.92;;;14.60;99.90;;;;;;5077074;28;20148;-72
2022/07/23 01:44:29;;;;;;;4.03;2.67;;;14.60;99.90;;;;;;5078234;28;20438;-72
2022/07/23 01:46:55;;;;;;;3.33;2.40;;;14.50;99.90;;;;;;5078497;28;20067;-72
2022/07/23 01:49:21;;;;;;;3.25;2.50;;;14.40;99.90;;;;;;5076803;28;20545;-72
2022/07/23 01:52:02;;;;;;;5.22;2.95;;;14.40;99.90;;;;;;5077470;28;20050;-72
2022/07/23 01:54:33;;;;;;;6.25;3.20;;;14.30;99.90;;;;;;5077895;28;20063;-72
2022/07/23 01:57:00;;;;;;;4.43;3.03;;;14.30;99.90;;;;;;5070090;28;20063;-72
2022/07/23 01:59:26;;;;;;;4.15;3.17;;;14.20;99.90;;;;;;5081813;28;20059;-73
2022/07/23 02:01:52;;;;;;;4.70;2.85;;;14.20;99.90;;;;;;5076770;28;20062;-72
2022/07/23 02:04:22;;;;;;;5.20;3.35;;;14.10;99.90;;;;;;5076074;28;20040;-72
2022/07/23 02:06:48;;;;;;;3.92;3.15;;;14.10;99.90;;;;;;5078692;28;20078;-72
2022/07/23 02:09:14;;;;;;;3.83;2.75;;;14.00;99.90;;;;;;5070914;28;20093;-72
2022/07/23 02:11:39;;;;;;;6.20;3.25;;;14.00;99.90;;;;;;5078377;28;20121;-72
2022/07/23 02:14:05;;;;;;;2.88;2.55;;;13.90;99.90;;;;;;5075983;28;20101;-72
2022/07/23 02:16:31;;;;;;;7.25;2.70;;;13.90;99.90;;;;;;5078762;28;20479;-72
2022/07/23 02:18:57;;;;;;;6.78;3.03;;;13.90;99.90;;;;;;5076847;28;20127;-72
2022/07/23 02:21:22;;;;;;;7.15;3.40;;;13.80;99.90;;;;;;5077378;28;20075;-72
2022/07/23 02:23:48;;;;;;;5.22;2.97;;;13.80;99.90;;;;;;5076632;28;20063;-72
2022/07/23 02:26:14;;;;;;;4.50;3.42;;;13.80;99.90;;;;;;5077538;28;20048;-72
2022/07/23 02:28:39;;;;;;;3.20;2.92;;;13.70;99.90;;;;;;5076549;28;20567;-72
2022/07/23 02:31:06;;;;;;;6.50;3.33;;;13.70;99.90;;;;;;5074748;28;20039;-72
2022/07/23 02:33:33;;;;;;;5.60;2.90;;;13.70;99.90;;;;;;5077043;28;20086;-73
2022/07/23 02:35:59;;;;;;;5.25;3.70;;;13.70;99.90;;;;;;5074830;28;20153;-72
2022/07/23 02:38:24;;;;;;;4.38;2.88;;;13.60;99.90;;;;;;5077232;28;20825;-72
2022/07/23 02:40:50;;;;;;;3.85;3.28;;;13.60;99.90;;;;;;5076677;28;20759;-72
2022/07/23 02:43:16;;;;;;;4.47;3.42;;;13.50;99.90;;;;;;5075557;28;20068;-72
2022/07/23 02:45:42;;;;;;;4.35;2.92;;;13.60;99.90;;;;;;5076486;28;20052;-72
2022/07/23 02:48:07;;;;;;;6.45;3.47;;;13.10;99.90;;;;;;5076479;28;20052;-72
2022/07/23 02:50:33;;;;;;;4.18;3.08;;;13.50;99.90;;;;;;5080527;28;20150;-72
2022/07/23 02:52:59;;;;;;;3.67;2.92;;;13.40;99.90;;;;;;5078196;28;20174;-72
2022/07/23 02:55:25;;;;;;;4.15;2.95;;;13.40;99.90;;;;;;5074635;28;20040;-72
2022/07/23 02:57:50;;;;;;;5.28;3.47;;;13.30;99.90;;;;;;5075290;28;20079;-72
2022/07/23 03:00:16;;;;;;;4.90;2.90;;;13.30;99.90;;;;;;5074799;28;20047;-72
2022/07/23 03:02:42;;;;;;;4.53;2.95;;;13.20;99.90;;;;;;5075828;28;20044;-72
2022/07/23 03:05:08;;;;;;;4.00;2.63;;;12.80;99.90;;;;;;5076559;28;20047;-72
2022/07/23 03:07:34;;;;;;;3.22;2.92;;;13.20;99.90;;;;;;5076960;28;20073;-72
2022/07/23 03:09:59;;;;;;;4.53;3.40;;;13.10;99.90;;;;;;5076817;28;20126;-72
2022/07/23 03:12:25;;;;;;;6.55;4.43;;;13.10;99.90;;;;;;5075762;28;20040;-72
2022/07/23 03:14:51;;;;;;;3.13;2.72;;;13.10;99.90;;;;;;5075823;28;20056;-72
2022/07/23 03:17:17;;;;;;;4.18;2.80;;;13.10;99.90;;;;;;5074423;28;20575;-72
2022/07/23 03:19:42;;;;;;;7.00;3.92;;;13.10;99.90;;;;;;5075399;28;20516;-72
2022/07/23 03:22:08;;;;;;;5.45;4.03;;;13.10;99.90;;;;;;5074883;28;20048;-72
2022/07/23 03:27:20;;;;;;;5.05;3.20;;;13.10;99.90;;;;;;5076260;28;20055;-73
2022/07/23 03:29:45;;;;;;;6.00;3.85;;;13.10;99.90;;;;;;5076276;28;20515;-72
2022/07/23 03:32:11;;;;;;;3.42;2.92;;;13.10;99.90;;;;;;5073362;28;20467;-72
2022/07/23 03:34:37;;;;;;;6.35;4.82;;;13.10;99.90;;;;;;5075254;28;20636;-72
2022/07/23 03:37:03;;;;;;;5.13;3.78;;;13.00;99.90;;;;;;5076148;28;20049;-72
2022/07/23 03:39:29;;;;;;;5.43;3.47;;;13.10;99.90;;;;;;5074292;28;20145;-72
2022/07/23 03:41:54;;;;;;;7.00;4.32;;;13.00;99.90;;;;;;5075672;28;20448;-72
2022/07/23 03:44:20;;;;;;;5.18;3.22;;;13.00;99.90;;;;;;5091358;28;20048;-72
2022/07/23 03:46:45;;;;;;;4.63;3.22;;;13.00;99.90;;;;;;5075254;28;20185;-72
2022/07/23 03:49:11;;;;;;;6.10;3.95;;;13.00;99.90;;;;;;5074020;28;20055;-72
2022/07/23 03:51:37;;;;;;;8.45;4.75;;;13.10;99.90;;;;;;5071458;28;20044;-72
2022/07/23 03:54:03;;;;;;;5.47;3.90;;;13.00;99.90;;;;;;5076429;28;20059;-72
2022/07/23 03:56:28;;;;;;;7.45;4.18;;;13.00;99.90;;;;;;5078845;28;20477;-72
2022/07/23 03:58:54;;;;;;;7.97;3.10;;;13.00;99.90;;;;;;5078353;28;20630;-71
2022/07/23 04:01:20;;;;;;;5.50;4.03;;;13.00;99.90;;;;;;5080415;28;20056;-71
2022/07/23 04:03:46;;;;;;;8.88;4.68;;;13.00;99.90;;;;;;5078668;28;20051;-71
2022/07/23 04:06:12;;;;;;;10.77;3.65;;;13.00;99.90;;;;;;5080597;28;20052;-72
2022/07/23 04:08:37;;;;;;;4.55;3.70;;;13.00;99.90;;;;;;5078020;28;20068;-71
2022/07/23 04:11:03;;;;;;;8.13;4.03;;;13.00;99.90;;;;;;5078322;28;20044;-71
2022/07/23 04:13:29;;;;;;;6.28;3.60;;;13.00;99.90;;;;;;5076624;28;20055;-71
2022/07/23 04:15:55;;;;;;;5.82;3.47;;;13.00;99.90;;;;;;5078152;28;20044;-71
2022/07/23 04:18:23;;;;;;;6.25;3.25;;;13.00;99.90;;;;;;5079730;28;20069;-71
2022/07/23 04:20:50;;;;;;;4.22;2.97;;;13.00;99.90;;;;;;5066557;28;20080;-71
2022/07/23 04:23:16;;;;;;;6.82;3.28;;;13.00;99.90;;;;;;5076257;28;20084;-71
2022/07/23 04:25:42;;;;;;;3.58;3.25;;;13.00;99.90;;;;;;5078380;28;20381;-71
2022/07/23 04:28:08;;;;;;;7.13;3.25;;;13.00;99.90;;;;;;5078604;28;20063;-71
2022/07/23 04:30:34;;;;;;;4.68;3.45;;;13.00;99.90;;;;;;5076326;28;20044;-76
2022/07/23 04:32:59;;;;;;;5.93;2.90;;;13.10;99.90;;;;;;5077534;28;20040;-72
2022/07/23 04:35:25;;;;;;;4.05;3.08;;;13.10;99.90;;;;;;5083172;28;20044;-73
2022/07/23 04:37:51;;;;;;;4.82;2.30;;;13.20;99.90;;;;;;5083129;28;20090;-72
2022/07/23 04:40:17;;;;;;;3.35;2.65;;;13.30;99.90;;;;;;5087268;28;20531;-72
2022/07/23 04:42:42;;;;;;;4.82;3.53;;;13.40;99.90;;;;;;5078224;28;20040;-72
2022/07/23 04:45:08;;;;;;;3.05;2.05;;;13.50;99.90;;;;;;5077775;28;20132;-72
2022/07/23 04:47:34;;;;;;;5.05;3.50;;;13.50;99.90;;;;;;5076674;28;20085;-72
2022/07/23 04:50:00;;;;;;;5.35;3.25;;;13.60;99.90;;;;;;5079065;28;20420;-73
2022/07/23 04:52:25;;;;;;;5.63;3.53;;;13.70;99.90;;;;;;5078168;28;20178;-72
2022/07/23 04:54:51;;;;;;;6.97;3.95;;;13.70;99.90;;;;;;5077594;28;20101;-72
2022/07/23 04:57:18;;;;;;;4.63;3.15;;;13.80;99.90;;;;;;5091779;28;20181;-73
2022/07/23 04:59:44;;;;;;;6.15;3.08;;;13.80;99.90;;;;;;5082073;28;20039;-72
2022/07/23 05:02:10;;;;;;;5.35;3.20;;;13.90;99.90;;;;;;5087197;28;20601;-72
2022/07/23 05:04:35;;;;;;;6.88;3.10;;;14.00;99.90;;;;;;5076925;28;20885;-72
2022/07/23 05:07:01;;;;;;;7.35;3.53;;;14.00;99.90;;;;;;5077617;28;20054;-72
2022/07/23 05:09:26;;;;;;;4.40;3.03;;;14.10;99.90;;;;;;5078264;28;20043;-72
2022/07/23 05:11:52;;;;;;;3.38;2.88;;;14.20;99.90;;;;;;5078662;28;20120;-72
2022/07/23 05:14:18;;;;;;;3.80;2.83;;;14.20;99.90;;;;;;5077239;28;20059;-72
2022/07/23 05:16:43;;;;;;;6.15;2.83;;;14.40;99.90;;;;;;5078550;28;20044;-72
2022/07/23 05:19:09;;;;;;;3.20;2.33;;;14.30;99.90;;;;;;5077195;28;20559;-72
2022/07/23 05:21:35;;;;;;;4.03;2.72;;;14.50;99.90;;;;;;5076169;28;20050;-71
2022/07/23 05:24:00;;;;;;;3.67;3.17;;;14.50;99.90;;;;;;5075708;28;20091;-72
2022/07/23 05:26:26;;;;;;;5.43;3.13;;;14.60;99.90;;;;;;5080316;28;20170;-73
2022/07/23 05:28:52;;;;;;;6.00;3.40;;;14.70;99.90;;;;;;5079516;28;20844;-72
2022/07/23 05:31:18;;;;;;;4.05;3.40;;;14.70;99.90;;;;;;5076713;28;20055;-72
2022/07/23 05:33:44;;;;;;;4.47;2.42;;;14.70;99.90;;;;;;5077819;28;20051;-72
2022/07/23 05:36:10;;;;;;;5.07;3.47;;;14.70;99.90;;;;;;5071825;28;20048;-72
2022/07/23 05:38:36;;;;;;;4.10;2.53;;;14.70;99.90;;;;;;5077512;28;20046;-71
2022/07/23 05:41:01;;;;;;;4.78;3.17;;;14.80;99.90;;;;;;5075754;28;20052;-72
2022/07/23 05:43:28;;;;;;;3.85;2.70;;;14.80;99.90;;;;;;5077628;28;20042;-72
2022/07/23 05:45:53;;;;;;;7.30;3.08;;;14.80;99.90;;;;;;5076573;28;20173;-71
2022/07/23 05:48:19;;;;;;;6.28;3.17;;;14.90;99.90;;;;;;5076709;28;20043;-72
2022/07/23 05:50:46;;;;;;;5.32;3.13;;;14.80;99.90;;;;;;5076671;28;20828;-72
2022/07/23 05:53:11;;;;;;;4.90;3.75;;;14.90;99.90;;;;;;5076413;28;21084;-73
2022/07/23 05:55:37;;;;;;;4.18;2.80;;;14.90;99.90;;;;;;5077081;28;20052;-72
2022/07/23 05:58:02;;;;;;;5.07;3.70;;;15.00;99.90;;;;;;5077867;28;20047;-72
2022/07/23 06:00:28;;;;;;;3.83;3.05;;;15.10;99.90;;;;;;5077723;28;20048;-72
2022/07/23 06:02:54;;;;;;;5.50;2.90;;;15.20;99.90;;;;;;5074025;28;20112;-72
2022/07/23 06:05:20;;;;;;;5.68;2.50;;;15.30;99.90;;;;;;5077511;28;20051;-73
2022/07/23 06:07:45;;;;;;;4.63;2.72;;;15.30;99.90;;;;;;5075165;28;20036;-72
2022/07/23 06:10:11;;;;;;;3.08;2.72;;;15.30;99.90;;;;;;5076929;28;20133;-73
2022/07/23 06:12:37;;;;;;;4.55;3.03;;;15.40;99.90;;;;;;5076393;28;20102;-71
2022/07/23 06:15:04;;;;;;;2.90;2.38;;;15.40;99.90;;;;;;5084717;28;20491;-73
2022/07/23 06:17:29;;;;;;;3.72;1.80;;;15.50;99.90;;;;;;5075758;28;20048;-72
2022/07/23 06:19:55;;;;;;;3.13;2.30;;;15.60;99.90;;;;;;5077052;28;20495;-72
2022/07/23 06:22:22;;;;;;;6.55;2.47;;;15.70;99.90;;;;;;5074947;28;20156;-74
2022/07/23 06:24:48;;;;;;;3.42;2.50;;;15.80;99.90;;;;;;5065157;28;20055;-72
2022/07/23 06:27:14;;;;;;;2.15;1.90;;;15.90;99.90;;;;;;5075444;28;20052;-71
2022/07/23 06:29:40;;;;;;;2.72;2.17;;;16.00;99.90;;;;;;5075650;28;20126;-71
2022/07/23 06:32:06;;;;;;;2.72;1.70;;;16.10;99.90;;;;;;5074294;28;20044;-72
2022/07/23 06:34:33;;;;;;;3.60;2.17;;;16.30;99.90;;;;;;5076578;28;20062;-72
2022/07/23 06:36:59;;;;;;;4.38;1.70;;;16.50;99.90;;;;;;5070358;28;20148;-72
2022/07/23 06:39:24;;;;;;;2.97;2.03;;;17.00;99.90;;;;;;5073301;28;20868;-73
2022/07/23 06:41:50;;;;;;;2.80;1.50;;;18.20;99.90;;;;;;5071558;28;20048;-72
2022/07/23 06:44:16;;;;;;;2.80;1.70;;;19.50;99.90;;;;;;5072327;28;20492;-73
2022/07/23 06:46:41;;;;;;;2.53;1.40;;;20.50;99.90;;;;;;5069217;28;20059;-72
2022/07/23 06:49:07;;;;;;;2.55;1.30;;;21.40;99.90;;;;;;5070747;28;20052;-72
2022/07/23 06:51:33;;;;;;;2.30;1.33;;;21.80;99.90;;;;;;5071817;28;20163;-72
2022/07/23 06:53:59;;;;;;;7.38;1.60;;;22.10;99.90;;;;;;5071326;28;20136;-72
2022/07/23 06:56:25;;;;;;;3.45;1.40;;;22.10;99.90;;;;;;5066535;28;20051;-72
2022/07/23 06:58:50;;;;;;;3.08;1.50;;;21.80;99.90;;;;;;5073100;28;20557;-73
2022/07/23 07:01:16;;;;;;;2.33;1.42;;;21.40;99.90;;;;;;5069927;28;20052;-71
2022/07/23 07:03:42;;;;;;;1.58;1.27;;;21.10;99.90;;;;;;5070061;28;20051;-72
2022/07/23 07:06:08;;;;;;;1.52;1.38;;;21.00;99.90;;;;;;5073442;28;20085;-72
2022/07/23 07:08:33;;;;;;;1.30;1.20;;;20.90;99.90;;;;;;5068648;28;20039;-72
2022/07/23 07:10:59;;;;;;;2.15;1.13;;;20.60;99.90;;;;;;5071405;28;20056;-73
2022/07/23 07:13:25;;;;;;;2.63;1.20;;;20.40;99.90;;;;;;5073809;28;20134;-72
2022/07/23 07:15:50;;;;;;;1.63;1.02;;;20.10;99.90;;;;;;5071648;28;20830;-73
2022/07/23 07:18:16;;;;;;;3.47;1.40;;;19.90;99.90;;;;;;5069244;28;20090;-73
2022/07/23 07:20:42;;;;;;;2.00;0.88;;;19.80;99.90;;;;;;5070713;28;20043;-73
2022/07/23 07:23:08;;;;;;;1.27;0.90;;;19.50;99.90;;;;;;5070062;28;20162;-72
2022/07/23 07:25:34;;;;;;;1.55;0.75;;;19.60;99.90;;;;;;5074160;28;20079;-73
2022/07/23 07:27:59;;;;;;;1.25;0.70;;;19.60;99.90;;;;;;5070367;28;20123;-72
2022/07/23 07:30:25;;;;;;;1.48;0.73;;;19.80;99.90;;;;;;5070034;28;20139;-73
2022/07/23 07:32:51;;;;;;;1.67;0.90;;;20.20;99.90;;;;;;5068791;28;20131;-73
2022/07/23 07:35:16;;;;;;;1.90;0.88;;;20.40;99.90;;;;;;5072983;28;20097;-73
2022/07/23 07:37:42;;;;;;;1.65;1.10;;;21.10;99.90;;;;;;5074977;28;20086;-73
2022/07/23 07:40:08;;;;;;;1.45;0.60;;;22.10;99.90;;;;;;5070679;28;20083;-74
2022/07/23 07:42:34;;;;;;;2.95;0.70;;;22.40;99.90;;;;;;5073244;28;20147;-74
2022/07/23 07:45:00;;;;;;;0.52;0.52;;;23.40;99.90;;;;;;5073995;28;20042;-73
2022/07/23 07:47:26;;;;;;;3.33;1.45;;;23.80;99.00;;;;;;5073534;28;20476;-73
2022/07/23 07:49:51;;;;;;;1.40;0.70;;;23.30;99.00;;;;;;5078698;28;20086;-73
2022/07/23 07:52:17;;;;;;;2.63;1.83;;;23.00;93.50;;;;;;5076652;28;20040;-73
2022/07/23 07:54:43;;;;;;;1.05;0.40;;;22.80;98.50;;;;;;5076804;28;20133;-74
2022/07/23 07:57:09;;;;;;;2.78;1.67;;;22.50;98.70;;;;;;5073429;28;20040;-73
2022/07/23 07:59:35;;;;;;;0.93;0.73;;;22.20;98.90;;;;;;5073563;28;20087;-73
2022/07/23 08:02:01;;;;;;;4.38;0.80;;;22.20;98.80;;;;;;5075130;28;20044;-74
2022/07/23 08:04:27;;;;;;;0.73;0.70;;;22.20;98.50;;;;;;5074310;28;20051;-73
2022/07/23 08:06:53;;;;;;;0.77;0.77;;;21.90;97.40;;;;;;5073478;28;20040;-73
2022/07/23 08:09:18;;;;;;;1.10;0.70;;;21.80;97.60;;;;;;5072736;28;20055;-74
2022/07/23 08:11:44;;;;;;;1.63;0.60;;;23.00;97.40;;;;;;5077863;28;20129;-73
2022/07/23 08:14:10;;;;;;;0.50;0.50;;;24.00;96.00;;;;;;5074088;28;20043;-74
2022/07/23 08:16:36;;;;;;;0.60;0.60;;;24.90;95.20;;;;;;5073698;28;20059;-74
2022/07/23 08:19:02;;;;;;;1.08;0.40;;;25.10;94.20;;;;;;5073518;28;20101;-73
2022/07/23 08:21:28;;;;;;;1.20;0.50;;;25.00;93.40;;;;;;5075093;28;20777;-73
2022/07/23 08:23:53;;;;;;;0.50;0.50;;;24.50;93.50;;;;;;5077937;28;20048;-73
2022/07/23 08:26:19;;;;;;;0.85;0.50;;;24.30;93.20;;;;;;5073182;28;20051;-74
2022/07/23 08:28:45;;;;;;;2.55;0.63;;;23.80;91.80;;;;;;5071815;28;20048;-74
2022/07/23 08:31:11;;;;;;;1.42;0.68;;;22.80;92.00;;;;;;5075902;28;20476;-74
2022/07/23 08:33:37;;;;;;;0.57;0.50;;;22.30;93.30;;;;;;5073393;28;20354;-73
2022/07/23 08:36:03;;;;;;;0.77;0.77;;;21.70;94.00;;;;;;5075778;28;20518;-73
2022/07/23 08:38:30;;;;;;;1.05;0.50;;;21.80;94.60;;;;;;5073266;28;20048;-74
2022/07/23 08:40:59;;;;;;;0.68;0.68;;;23.10;94.60;;;;;;5074065;28;20051;-72
2022/07/23 08:43:27;;;;;;;1.90;0.57;;;23.90;93.30;;;;;;5077509;28;20039;-73
2022/07/23 08:45:56;;;;;;;1.08;0.60;;;23.70;92.60;;;;;;5077643;28;20076;-73
2022/07/23 08:48:24;;;;;;;1.20;0.50;;;24.00;91.80;;;;;;5075875;28;20058;-73
2022/07/23 08:50:54;;;;;;;0.98;0.60;;;24.60;91.90;;;;;;5072554;28;20040;-74
2022/07/23 08:53:22;;;;;;;0.60;0.60;;;25.30;91.80;;;;;;5078421;28;20044;-74
2022/07/23 08:55:50;;;;;;;2.30;0.70;;;26.10;91.10;;;;;;5075024;28;20143;-73
2022/07/23 08:58:16;;;;;;;0.75;0.55;;;26.50;90.60;;;;;;5077670;28;20123;-74
2022/07/23 09:00:43;;;;;;;4.68;0.70;;;27.00;90.30;;;;;;5077432;28;20146;-73
2022/07/23 09:03:18;;;;;;;0.70;0.70;;;27.60;88.00;;;;;;5077213;28;20043;-74
2022/07/23 09:05:45;;;;;;;0.85;0.60;;;27.60;81.40;;;;;;5077173;28;20048;-74
2022/07/23 09:08:22;;;;;;;0.80;0.80;;;27.30;83.30;;;;;;5074931;28;20110;-74
2022/07/23 09:11:00;;;;;;;1.95;0.77;;;26.40;81.80;;;;;;5075179;28;20496;-73
2022/07/23 09:14:02;;;;;;;1.95;0.85;;;25.40;85.40;;;;;;5074096;28;20061;-73
2022/07/23 09:16:30;;;;;;;0.82;0.70;;;24.40;82.10;;;;;;5049970;28;20052;-74
2022/07/23 09:18:57;;;;;;;1.58;0.80;;;24.40;89.90;;;;;;5056823;28;20052;-73
2022/07/23 09:21:29;;;;;;;1.42;0.60;;;24.20;87.10;;;;;;5077216;28;20836;-73
2022/07/23 09:24:00;;;;;;;5.40;1.00;;;24.30;86.50;;;;;;5075050;28;20048;-73
2022/07/23 09:26:37;;;;;;;0.60;0.60;;;25.00;85.60;;;;;;5076550;28;20385;-75
2022/07/23 09:29:16;;;;;;;0.77;0.77;;;24.80;82.70;;;;;;5074513;28;20120;-74
2022/07/23 09:31:52;;;;;;;1.13;0.52;;;24.70;83.70;;;;;;5073298;28;20070;-75
2022/07/23 09:34:21;;;;;;;1.73;0.70;;;24.50;86.70;;;;;;5076257;28;20040;-75
2022/07/23 09:36:48;;;;;;;0.85;0.85;;;24.20;86.40;;;;;;5073791;28;20069;-74
2022/07/23 09:39:17;;;;;;;0.60;0.52;;;23.80;88.00;;;;;;5077251;28;20062;-74
2022/07/23 09:41:45;;;;;;;1.13;0.98;;;23.30;87.10;;;;;;5072879;28;20103;-74
2022/07/23 09:44:12;;;;;;;1.75;0.73;;;23.70;89.40;;;;;;5076681;28;20062;-75
2022/07/23 09:46:39;;;;;;;4.53;1.38;;;23.60;90.10;;;;;;5075859;28;20074;-75
2022/07/23 09:49:31;;;;;;;1.27;0.80;;;24.00;90.20;;;;;;5074023;28;20752;-75
2022/07/23 09:52:01;;;;;;;1.98;1.10;;;24.20;85.20;;;;;;5067834;28;20155;-75
2022/07/23 09:54:36;;;;;;;2.08;0.90;;;24.30;88.80;;;;;;5073788;28;20048;-74
2022/07/23 09:57:15;;;;;;;0.90;0.90;;;24.60;88.80;;;;;;5075420;28;20135;-74
2022/07/23 09:59:42;;;;;;;0.60;0.60;;;24.50;88.00;;;;;;5073739;28;20036;-74
2022/07/23 10:02:10;;;;;;;1.05;0.80;;;24.20;88.10;;;;;;5072823;28;20689;-75
2022/07/23 10:04:36;;;;;;;1.27;0.90;;;24.10;89.30;;;;;;5074572;28;20059;-73
2022/07/23 10:07:03;;;;;;;1.75;0.75;;;24.20;89.90;;;;;;5073418;28;20052;-73
2022/07/23 10:09:35;;;;;;;2.10;0.82;;;24.20;89.60;;;;;;5075711;28;20051;-74
2022/07/23 10:14:52;;;;;;;1.70;0.90;;;24.20;88.90;;;;;;5032470;28;20064;-73
2022/07/23 10:17:18;;;;;;;0.93;0.82;;;24.20;89.60;;;;;;5070023;28;20229;-74
2022/07/23 10:19:44;;;;;;;1.00;0.88;;;24.10;89.20;;;;;;5066100;28;20048;-72
2022/07/23 10:22:14;;;;;;;1.75;1.00;;;24.30;88.50;;;;;;5070884;28;20568;-74
2022/07/23 10:24:55;;;;;;;1.98;0.98;;;24.30;88.40;;;;;;5074935;28;20868;-75
2022/07/23 10:27:42;;;;;;;4.20;0.98;;;24.40;87.40;;;;;;5073956;28;20519;-75
2022/07/23 10:30:13;;;;;;;1.52;0.93;;;24.40;90.00;;;;;;5073333;28;20056;-73
2022/07/23 10:33:16;;;;;;;2.58;0.88;;;24.30;89.00;;;;;;5075140;28;20162;-74
2022/07/23 10:36:01;;;;;;;2.38;0.88;;;24.00;87.50;;;;;;5063476;28;20048;-74
2022/07/23 10:39:05;;;;;;;1.30;1.20;;;23.60;89.10;;;;;;5074275;28;20551;-75
2022/07/23 10:41:39;;;;;;;1.48;0.80;;;23.50;90.70;;;;;;5073564;28;20069;-74
2022/07/23 10:44:13;;;;;;;0.80;0.77;;;23.30;90.00;;;;;;5074576;28;20131;-75
2022/07/23 10:49:43;;;;;;;1.65;0.90;;;23.20;88.30;;;;;;5072253;28;20143;-74
2022/07/23 10:52:15;;;;;;;1.33;0.82;;;22.80;90.40;;;;;;5074553;28;20509;-74
2022/07/23 10:54:41;;;;;;;1.45;1.00;;;22.70;91.10;;;;;;5072149;28;20457;-75
2022/07/23 10:57:09;;;;;;;1.13;0.73;;;22.70;91.10;;;;;;5074324;28;20131;-74
2022/07/23 11:00:09;;;;;;;1.35;1.05;;;22.50;91.00;;;;;;5072963;28;20558;-73
2022/07/23 11:02:36;;;;;;;0.90;0.82;;;22.50;90.80;;;;;;5073890;28;21286;-73
2022/07/23 11:05:08;;;;;;;2.17;0.90;;;22.40;91.50;;;;;;5082105;28;20048;-74
2022/07/23 11:07:35;;;;;;;1.45;1.25;;;22.40;91.70;;;;;;5072683;28;20098;-74
2022/07/23 11:10:02;;;;;;;1.27;1.10;;;22.40;91.70;;;;;;5073463;28;20441;-74
2022/07/23 11:12:27;;;;;;;1.88;1.23;;;22.30;90.70;;;;;;5073502;28;20640;-72
2022/07/23 11:15:06;;;;;;;0.70;0.70;;;22.50;91.80;;;;;;5074829;28;20144;-73
2022/07/23 11:17:56;;;;;;;1.13;0.93;;;22.60;91.70;;;;;;5068190;28;20036;-74
2022/07/23 11:20:23;;;;;;;1.00;0.90;;;22.70;91.30;;;;;;5071640;28;20616;-74
2022/07/23 11:22:54;;;;;;;1.27;1.10;;;22.70;91.70;;;;;;5071241;28;20060;-72
2022/07/23 11:25:29;;;;;;;1.80;1.20;;;22.70;91.60;;;;;;5060844;28;20225;-74
2022/07/23 11:28:08;;;;;;;1.48;1.08;;;22.70;90.90;;;;;;5069998;28;20055;-73
2022/07/23 11:30:39;;;;;;;1.90;1.23;;;22.70;91.90;;;;;;5069252;28;20078;-74
2022/07/23 11:33:07;;;;;;;2.13;1.60;;;22.70;91.70;;;;;;5069846;28;20043;-74
2022/07/23 11:35:38;;;;;;;2.00;1.02;;;22.60;91.80;;;;;;5068888;28;20048;-72
2022/07/23 11:38:21;;;;;;;1.85;1.58;;;22.70;92.10;;;;;;5070062;28;20109;-73
2022/07/23 11:40:52;;;;;;;4.70;1.20;;;22.70;91.50;;;;;;5073863;28;20052;-75
2022/07/23 11:43:18;;;;;;;8.82;1.33;;;22.60;91.30;;;;;;5072889;28;20039;-74
2022/07/23 11:45:46;;;;;;;1.67;1.20;;;22.60;92.50;;;;;;5073482;28;20047;-72
2022/07/23 11:48:17;;;;;;;1.02;0.93;;;22.60;92.10;;;;;;5076411;28;20070;-74
2022/07/23 11:50:43;;;;;;;2.10;1.27;;;22.70;92.10;;;;;;5079955;28;20056;-76
2022/07/23 11:53:08;;;;;;;3.13;1.17;;;22.80;92.40;;;;;;5074366;28;20055;-76
2022/07/23 11:55:34;;;;;;;3.05;1.60;;;23.00;92.30;;;;;;5084367;28;20123;-73
2022/07/23 11:58:00;;;;;;;1.95;1.42;;;22.90;92.20;;;;;;5072500;28;20054;-74
2022/07/23 12:00:29;;;;;;;3.92;1.20;;;23.00;92.50;;;;;;5073193;28;20089;-72
2022/07/23 12:03:05;;;;;;;4.60;1.40;;;23.20;92.80;;;;;;5071971;28;20043;-73
2022/07/23 12:05:35;;;;;;;1.38;1.10;;;23.40;90.70;;;;;;5073502;28;20052;-75
2022/07/23 12:08:02;;;;;;;2.38;1.50;;;23.40;92.00;;;;;;5071210;28;20059;-75
2022/07/23 12:10:38;;;;;;;1.63;1.02;;;23.50;91.90;;;;;;5070905;28;20036;-73
2022/07/23 12:13:10;;;;;;;2.15;1.60;;;23.50;92.30;;;;;;5070229;28;20124;-74
2022/07/23 12:15:44;;;;;;;1.95;1.55;;;23.80;91.50;;;;;;5073858;28;20079;-73
2022/07/23 12:18:13;;;;;;;1.48;1.38;;;23.80;92.50;;;;;;5073422;28;20044;-74
2022/07/23 12:20:44;;;;;;;1.33;1.15;;;23.80;92.00;;;;;;5074913;28;20040;-76
2022/07/23 12:23:12;;;;;;;1.55;1.20;;;23.90;91.10;;;;;;5074472;28;20082;-75
2022/07/23 12:25:41;;;;;;;2.60;1.35;;;23.70;91.80;;;;;;5075526;28;20074;-75
2022/07/23 12:28:28;;;;;;;6.07;1.75;;;23.50;90.90;;;;;;5073536;28;20087;-74
2022/07/23 12:30:55;;;;;;;3.33;1.40;;;23.40;91.90;;;;;;5074567;28;20108;-77
2022/07/23 12:33:31;;;;;;;2.08;1.30;;;23.30;91.90;;;;;;5075851;28;20044;-76
2022/07/23 12:35:59;;;;;;;1.40;1.30;;;23.30;91.20;;;;;;5076437;28;20108;-75
2022/07/23 12:38:26;;;;;;;2.35;1.35;;;23.10;90.90;;;;;;5075352;28;20055;-74
2022/07/23 12:40:56;;;;;;;1.67;1.50;;;23.00;91.70;;;;;;5090650;27;20093;-75
2022/07/23 12:43:30;;;;;;;1.58;1.20;;;22.90;91.70;;;;;;5075636;28;20147;-75
2022/07/23 12:46:01;;;;;;;2.47;1.33;;;23.10;92.40;;;;;;5073068;28;20606;-73
2022/07/23 12:48:31;;;;;;;1.95;1.17;;;22.90;92.90;;;;;;5073632;28;20036;-76
2022/07/23 12:50:57;;;;;;;2.50;1.60;;;23.10;93.00;;;;;;5072037;28;20051;-76
2022/07/23 12:53:30;;;;;;;1.95;1.40;;;23.20;92.00;;;;;;5072055;28;20376;-73
2022/07/23 12:56:04;;;;;;;;;;;23.10;92.80;;;;;;5071064;28;20048;-73
2022/07/23 12:58:42;;;;;;;1.50;1.40;;;23.20;92.60;;;;;;5074265;28;19924;-75
2022/07/23 13:01:08;;;;;;;3.40;1.38;;;23.30;92.40;;;;;;5072975;28;20036;-72
2022/07/23 13:03:40;;;;;;;2.55;1.25;;;23.60;92.50;;;;;;5070916;28;20059;-73